Time;durP1;ratioP1;P1;durP2;ratioP2;P2;SDS_P1;SDS_P2;PMS_P1;PMS_P2;Temp;Humidity;BMP_temperature;BMP_pressure;BME280_temperature;BME280_humidity;BME280_pressure;Samples;Min_cycle;Max_cycle;Signal;HPM_P1;HPM_P2
2023/03/20 00:03:18;;;;;;;10.88;7.80;;;8.70;99.90;;;;;;7284119;32;20838;-55
2023/03/20 00:07:20;;;;;;;10.23;6.62;;;8.70;99.90;;;;;;7282161;32;20286;-55
2023/03/20 00:11:27;;;;;;;11.80;7.35;;;8.80;99.90;;;;;;7281888;32;20108;-55
2023/03/20 00:15:36;;;;;;;11.35;7.30;;;8.70;99.90;;;;;;7283859;32;20187;-55
2023/03/20 00:19:38;;;;;;;11.48;7.82;;;8.70;99.90;;;;;;7285290;32;20112;-55
2023/03/20 00:23:41;;;;;;;11.70;7.47;;;8.70;99.90;;;;;;7281033;32;20222;-56
2023/03/20 00:27:44;;;;;;;12.15;7.95;;;8.60;99.90;;;;;;7287614;32;20206;-56
2023/03/20 00:31:45;;;;;;;12.93;7.87;;;8.60;99.90;;;;;;7289409;32;20130;-55
2023/03/20 00:35:47;;;;;;;12.75;8.02;;;8.60;99.90;;;;;;7283752;32;20104;-55
2023/03/20 00:39:49;;;;;;;12.50;7.93;;;8.50;99.90;;;;;;7291055;32;20320;-55
2023/03/20 00:43:57;;;;;;;10.30;7.53;;;8.50;99.90;;;;;;7285091;32;20108;-55
2023/03/20 00:48:00;;;;;;;12.68;8.60;;;8.40;99.90;;;;;;7290772;32;20183;-55
2023/03/20 00:52:03;;;;;;;10.20;7.40;;;8.40;99.90;;;;;;7289348;32;20108;-55
2023/03/20 00:56:06;;;;;;;11.82;7.95;;;8.40;99.90;;;;;;7283783;32;20207;-55
2023/03/20 01:00:21;;;;;;;11.80;8.38;;;8.40;99.90;;;;;;7292652;32;20100;-55
2023/03/20 01:04:23;;;;;;;11.75;7.85;;;8.40;99.90;;;;;;7287534;32;20112;-55
2023/03/20 01:08:25;;;;;;;12.05;7.65;;;8.40;99.90;;;;;;7276291;32;20165;-55
2023/03/20 01:12:27;;;;;;;10.50;7.22;;;8.40;99.90;;;;;;7284509;32;20527;-55
2023/03/20 01:16:29;;;;;;;11.02;6.35;;;8.50;99.90;;;;;;7285407;32;20104;-55
2023/03/20 01:20:31;;;;;;;8.20;5.68;;;8.50;99.90;;;;;;7278160;32;20119;-55
2023/03/20 01:24:32;;;;;;;9.25;6.12;;;8.40;99.90;;;;;;7282497;32;20507;-56
2023/03/20 01:28:34;;;;;;;9.88;6.22;;;8.40;99.90;;;;;;7282282;32;20162;-55
2023/03/20 01:32:36;;;;;;;9.23;5.90;;;8.40;99.90;;;;;;7278100;32;20183;-55
2023/03/20 01:36:38;;;;;;;9.98;6.28;;;8.40;99.90;;;;;;7278888;32;20126;-55
2023/03/20 01:40:52;;;;;;;11.02;6.40;;;8.30;99.90;;;;;;7285267;32;20194;-55
2023/03/20 01:44:54;;;;;;;10.98;6.40;;;8.30;99.90;;;;;;7275986;32;20118;-55
2023/03/20 01:49:19;;;;;;;9.30;6.22;;;8.30;99.90;;;;;;7281385;32;20130;-55
2023/03/20 01:53:25;;;;;;;8.70;6.43;;;8.30;99.90;;;;;;7242798;32;20377;-55
2023/03/20 01:57:27;;;;;;;9.33;6.67;;;8.20;99.90;;;;;;7277930;32;20140;-55
2023/03/20 02:01:29;;;;;;;10.68;6.47;;;8.10;99.90;;;;;;7281700;32;20210;-55
2023/03/20 02:05:31;;;;;;;8.50;6.12;;;8.00;99.90;;;;;;7279564;32;20304;-56
2023/03/20 02:09:33;;;;;;;10.88;7.03;;;7.90;99.90;;;;;;7279829;32;20995;-55
2023/03/20 02:13:35;;;;;;;10.77;7.32;;;7.80;99.90;;;;;;7284717;32;20158;-55
2023/03/20 02:17:37;;;;;;;12.55;8.02;;;7.70;99.90;;;;;;7279480;32;20104;-55
2023/03/20 02:22:16;;;;;;;11.25;7.93;;;7.60;99.90;;;;;;7283562;32;20101;-56
2023/03/20 02:26:45;;;;;;;13.48;7.97;;;7.50;99.90;;;;;;7287547;32;20124;-56
2023/03/20 02:31:08;;;;;;;11.93;8.27;;;7.50;99.90;;;;;;7278840;32;20230;-55
2023/03/20 02:35:22;;;;;;;11.38;7.68;;;7.40;99.90;;;;;;7273994;32;20675;-56
2023/03/20 02:39:47;;;;;;;14.55;8.50;;;7.30;99.90;;;;;;7277500;32;20263;-56
2023/03/20 02:44:02;;;;;;;12.07;7.82;;;7.30;99.90;;;;;;7282695;32;20572;-56
2023/03/20 02:48:31;;;;;;;13.27;8.77;;;7.20;99.90;;;;;;7273047;32;20598;-55
2023/03/20 02:52:45;;;;;;;12.10;8.50;;;7.20;99.90;;;;;;7278162;32;20175;-55
2023/03/20 02:57:05;;;;;;;16.05;9.35;;;7.30;99.90;;;;;;7276834;32;20186;-55
2023/03/20 03:01:25;;;;;;;13.88;9.15;;;7.40;99.90;;;;;;7278958;32;20230;-55
2023/03/20 03:05:52;;;;;;;12.02;8.55;;;7.40;99.90;;;;;;7277694;32;20257;-55
2023/03/20 03:10:10;;;;;;;14.75;9.30;;;7.40;99.90;;;;;;7271366;32;20213;-56
2023/03/20 03:14:40;;;;;;;12.57;9.35;;;7.30;99.90;;;;;;7280435;32;20316;-55
2023/03/20 03:18:43;;;;;;;16.67;9.48;;;7.30;99.90;;;;;;7281946;32;20127;-55
2023/03/20 03:22:46;;;;;;;15.65;9.27;;;7.40;99.90;;;;;;7278760;32;20443;-55
2023/03/20 03:26:48;;;;;;;14.52;9.52;;;7.40;99.90;;;;;;7275908;32;20126;-55
2023/03/20 03:30:52;;;;;;;14.82;10.50;;;7.30;99.90;;;;;;7273669;32;20225;-55
2023/03/20 03:34:55;;;;;;;15.63;10.75;;;7.20;99.90;;;;;;7275630;32;20270;-55
2023/03/20 03:39:05;;;;;;;18.02;10.90;;;7.10;99.90;;;;;;7275062;32;20165;-55
2023/03/20 03:43:17;;;;;;;16.80;10.23;;;7.00;99.90;;;;;;7279041;32;20096;-55
2023/03/20 03:47:24;;;;;;;16.87;10.68;;;7.00;99.90;;;;;;7278746;32;20575;-55
2023/03/20 03:51:30;;;;;;;18.27;10.70;;;6.90;99.90;;;;;;7274996;32;20195;-55
2023/03/20 03:55:38;;;;;;;16.43;10.93;;;7.00;99.90;;;;;;7280350;32;20141;-55
2023/03/20 03:59:45;;;;;;;18.35;10.23;;;7.10;99.90;;;;;;7281305;32;20138;-55
2023/03/20 04:03:53;;;;;;;16.80;10.68;;;7.20;99.90;;;;;;7276437;32;20211;-56
2023/03/20 04:07:58;;;;;;;17.83;11.55;;;7.30;99.90;;;;;;7281934;32;20128;-55
2023/03/20 04:11:59;;;;;;;17.40;11.93;;;7.40;99.90;;;;;;7279600;32;20210;-56
2023/03/20 04:16:01;;;;;;;18.25;11.60;;;7.50;99.90;;;;;;7277490;32;20210;-56
2023/03/20 04:20:04;;;;;;;19.35;11.60;;;7.60;99.90;;;;;;7278719;32;20501;-55
2023/03/20 04:24:06;;;;;;;19.00;11.45;;;7.50;99.90;;;;;;7285175;32;20108;-55
2023/03/20 04:28:09;;;;;;;19.85;11.70;;;7.60;99.90;;;;;;7281187;32;20105;-56
2023/03/20 04:32:11;;;;;;;15.77;10.55;;;7.50;99.90;;;;;;7281522;32;20140;-55
2023/03/20 04:36:13;;;;;;;17.10;10.02;;;7.50;99.90;;;;;;7285732;32;20124;-55
2023/03/20 04:40:15;;;;;;;18.90;11.43;;;7.50;99.90;;;;;;7283312;32;20161;-55
2023/03/20 04:44:17;;;;;;;17.50;11.00;;;7.40;99.90;;;;;;7284345;32;20311;-55
2023/03/20 04:48:19;;;;;;;15.60;10.43;;;7.40;99.90;;;;;;7282030;32;20541;-56
2023/03/20 04:52:20;;;;;;;18.70;10.63;;;7.30;99.90;;;;;;7290521;32;20104;-55
2023/03/20 04:56:22;;;;;;;18.67;10.82;;;7.20;99.90;;;;;;7276613;32;20112;-55
2023/03/20 05:00:24;;;;;;;15.43;10.35;;;7.30;99.90;;;;;;7283655;32;20215;-56
2023/03/20 05:04:26;;;;;;;18.23;11.23;;;7.30;99.90;;;;;;7282223;32;20158;-56
2023/03/20 05:08:28;;;;;;;17.12;11.40;;;7.30;99.90;;;;;;7283522;32;20207;-56
2023/03/20 05:12:30;;;;;;;18.35;11.52;;;7.10;99.90;;;;;;7281514;32;20486;-55
2023/03/20 05:16:32;;;;;;;15.70;10.40;;;7.20;99.90;;;;;;7288898;32;20161;-55
2023/03/20 05:20:35;;;;;;;18.77;11.85;;;7.10;99.90;;;;;;7277659;32;20282;-55
2023/03/20 05:24:36;;;;;;;17.58;11.27;;;7.00;99.90;;;;;;7275498;32;20357;-55
2023/03/20 05:28:38;;;;;;;17.75;10.73;;;7.00;99.90;;;;;;7279950;32;20165;-55
2023/03/20 05:32:40;;;;;;;15.40;10.10;;;7.00;99.90;;;;;;7277693;32;20610;-55
2023/03/20 05:36:42;;;;;;;17.77;10.68;;;7.00;99.90;;;;;;7287296;32;20526;-55
2023/03/20 05:40:44;;;;;;;17.98;10.13;;;7.00;99.90;;;;;;7280572;32;20105;-56
2023/03/20 05:44:46;;;;;;;15.70;9.40;;;7.00;99.90;;;;;;7277153;32;20774;-56
2023/03/20 05:48:48;;;;;;;16.77;9.88;;;7.00;99.90;;;;;;7279599;32;20675;-57
2023/03/20 05:52:49;;;;;;;17.92;10.70;;;7.00;99.90;;;;;;7284446;32;20147;-57
2023/03/20 05:56:51;;;;;;;14.85;9.13;;;7.20;99.90;;;;;;7279229;32;20130;-57
2023/03/20 06:00:53;;;;;;;16.65;10.88;;;7.10;99.90;;;;;;7275270;32;20451;-57
2023/03/20 06:04:55;;;;;;;20.73;11.40;;;7.10;99.90;;;;;;7286766;32;20112;-57
2023/03/20 06:08:56;;;;;;;20.12;11.38;;;7.20;99.90;;;;;;7277035;32;20179;-57
2023/03/20 06:12:59;;;;;;;19.58;10.65;;;7.10;99.90;;;;;;7278352;32;20108;-56
2023/03/20 06:17:01;;;;;;;18.35;11.35;;;7.20;99.90;;;;;;7276253;32;20832;-57
2023/03/20 06:21:04;;;;;;;19.98;10.50;;;7.30;99.90;;;;;;7276708;32;20265;-57
2023/03/20 06:25:06;;;;;;;19.58;10.77;;;7.30;99.90;;;;;;7274522;32;20298;-57
2023/03/20 06:29:08;;;;;;;19.48;11.05;;;7.30;99.90;;;;;;7280036;32;20103;-57
2023/03/20 06:33:10;;;;;;;21.73;10.77;;;7.30;99.90;;;;;;7274841;32;20809;-57
2023/03/20 06:37:12;;;;;;;19.85;9.85;;;7.30;99.90;;;;;;7274850;32;20204;-57
2023/03/20 06:41:13;;;;;;;16.83;10.32;;;7.40;99.90;;;;;;7280521;32;20127;-57
2023/03/20 06:45:34;;;;;;;18.40;10.55;;;7.40;99.90;;;;;;7274331;32;20335;-57
2023/03/20 06:49:36;;;;;;;16.77;9.50;;;7.50;99.90;;;;;;7276882;32;20215;-56
2023/03/20 06:53:40;;;;;;;17.95;9.63;;;7.50;99.90;;;;;;7280038;32;20175;-55
2023/03/20 06:57:42;;;;;;;15.10;9.40;;;7.60;99.90;;;;;;7280818;32;20215;-55
2023/03/20 07:01:43;;;;;;;15.65;9.73;;;7.70;99.90;;;;;;7280341;32;20217;-56
2023/03/20 07:05:46;;;;;;;14.20;7.93;;;7.80;99.90;;;;;;7273749;32;20108;-56
2023/03/20 07:09:48;;;;;;;15.52;8.23;;;7.90;99.90;;;;;;7282305;32;20120;-55
2023/03/20 07:13:49;;;;;;;15.05;7.03;;;8.00;99.90;;;;;;7277123;32;20104;-55
2023/03/20 07:17:52;;;;;;;9.90;5.45;;;8.10;99.90;;;;;;7278813;32;20104;-56
2023/03/20 07:22:00;;;;;;;11.00;5.57;;;8.30;99.90;;;;;;7275354;32;20662;-56
2023/03/20 07:26:02;;;;;;;9.40;4.32;;;8.30;99.90;;;;;;7274726;32;20104;-55
2023/03/20 07:30:05;;;;;;;11.63;5.70;;;8.30;99.90;;;;;;7273177;32;20886;-56
2023/03/20 07:34:07;;;;;;;9.52;5.47;;;8.30;99.90;;;;;;7264973;32;20099;-55
2023/03/20 07:38:09;;;;;;;9.23;5.30;;;8.40;99.90;;;;;;7272951;32;20100;-55
2023/03/20 07:42:12;;;;;;;11.82;5.82;;;8.30;99.90;;;;;;7266502;32;20548;-55
2023/03/20 07:46:14;;;;;;;11.85;6.10;;;8.30;99.90;;;;;;7270838;32;20199;-55
2023/03/20 07:50:16;;;;;;;13.13;6.75;;;8.30;99.90;;;;;;7272599;32;20099;-56
2023/03/20 07:54:18;;;;;;;11.75;7.15;;;8.40;99.90;;;;;;7275859;32;20128;-57
2023/03/20 07:58:20;;;;;;;13.75;7.53;;;8.50;99.90;;;;;;7277456;32;20092;-56
2023/03/20 08:02:22;;;;;;;17.60;8.70;;;8.60;99.90;;;;;;7273749;32;20737;-56
2023/03/20 08:06:24;;;;;;;15.68;7.78;;;8.60;99.90;;;;;;7262751;32;20543;-55
2023/03/20 08:10:26;;;;;;;15.10;7.90;;;8.80;99.90;;;;;;7283355;32;20126;-55
2023/03/20 08:14:28;;;;;;;13.23;8.20;;;8.90;99.90;;;;;;7281336;32;20128;-55
2023/03/20 08:18:29;;;;;;;15.15;8.70;;;9.00;99.90;;;;;;7272563;32;20184;-56
2023/03/20 08:22:31;;;;;;;16.17;8.27;;;8.90;99.90;;;;;;7275564;32;20585;-56
2023/03/20 08:26:33;;;;;;;15.07;7.95;;;9.00;99.90;;;;;;7285163;32;20130;-56
2023/03/20 08:30:35;;;;;;;14.38;7.45;;;9.00;99.90;;;;;;7286450;32;20502;-56
2023/03/20 08:34:37;;;;;;;15.25;7.97;;;9.20;99.90;;;;;;7272722;32;20161;-56
2023/03/20 08:38:39;;;;;;;14.63;7.50;;;9.40;99.90;;;;;;7279546;32;20282;-56
2023/03/20 08:42:40;;;;;;;14.13;7.30;;;9.60;99.90;;;;;;7276368;32;20356;-55
2023/03/20 08:46:43;;;;;;;11.90;7.05;;;9.80;99.90;;;;;;7278653;32;20198;-55
2023/03/20 08:50:45;;;;;;;13.75;6.80;;;9.80;99.90;;;;;;7280156;32;20252;-56
2023/03/20 08:54:47;;;;;;;19.52;6.80;;;9.80;99.90;;;;;;7279871;32;20339;-55
2023/03/20 08:58:48;;;;;;;14.52;6.78;;;9.90;99.90;;;;;;7279361;32;20092;-55
2023/03/20 09:02:50;;;;;;;15.32;7.40;;;9.80;99.90;;;;;;7281736;32;20101;-55
2023/03/20 09:06:52;;;;;;;12.68;6.45;;;9.90;99.90;;;;;;7285778;32;20167;-56
2023/03/20 09:10:54;;;;;;;11.82;5.78;;;9.80;99.90;;;;;;7280492;32;20104;-56
2023/03/20 09:14:55;;;;;;;13.55;6.35;;;9.50;99.90;;;;;;7281982;32;20514;-55
2023/03/20 09:18:57;;;;;;;13.27;6.22;;;9.40;99.90;;;;;;7277547;32;20585;-57
2023/03/20 09:22:59;;;;;;;11.75;5.00;;;9.60;99.90;;;;;;7279339;32;20264;-56
2023/03/20 09:27:01;;;;;;;10.32;4.50;;;9.60;99.90;;;;;;7280597;32;20158;-57
2023/03/20 09:31:05;;;;;;;13.38;5.05;;;9.60;99.90;;;;;;7279386;32;20270;-58
2023/03/20 09:35:07;;;;;;;9.40;4.10;;;9.60;99.90;;;;;;7285734;32;20226;-56
2023/03/20 09:39:08;;;;;;;8.38;3.22;;;9.70;99.90;;;;;;7281179;32;20172;-55
2023/03/20 09:43:25;;;;;;;8.82;3.30;;;9.80;99.90;;;;;;7282019;32;20133;-56
2023/03/20 09:47:42;;;;;;;6.10;2.00;;;9.90;99.90;;;;;;7282126;32;20187;-55
2023/03/20 09:51:55;;;;;;;8.75;1.85;;;9.90;99.90;;;;;;7278365;32;20096;-55
2023/03/20 09:55:57;;;;;;;8.55;2.67;;;9.70;99.90;;;;;;7279845;32;22004;-55
2023/03/20 10:00:06;;;;;;;7.03;2.10;;;9.90;99.90;;;;;;7275635;32;20116;-56
2023/03/20 10:04:09;;;;;;;8.50;2.20;;;10.00;99.90;;;;;;7275350;32;20923;-56
2023/03/20 10:08:17;;;;;;;5.85;1.60;;;10.10;99.90;;;;;;7280327;32;20130;-57
2023/03/20 10:12:28;;;;;;;7.07;2.00;;;10.00;99.90;;;;;;7277950;32;20128;-57
2023/03/20 10:16:29;;;;;;;8.70;2.42;;;10.20;99.90;;;;;;7281061;32;20131;-56
2023/03/20 10:20:41;;;;;;;10.27;2.33;;;10.00;99.90;;;;;;7276282;32;20593;-56
2023/03/20 10:25:25;;;;;;;9.63;2.45;;;10.10;99.90;;;;;;7279663;32;20157;-57
2023/03/20 10:29:34;;;;;;;5.45;1.95;;;10.00;99.90;;;;;;7187655;32;20123;-56
2023/03/20 10:34:09;;;;;;;8.63;2.03;;;10.00;99.90;;;;;;7279330;32;20126;-56
2023/03/20 10:38:29;;;;;;;7.95;2.70;;;10.00;99.90;;;;;;7276461;32;20660;-56
2023/03/20 10:42:37;;;;;;;4.43;2.28;;;10.10;99.90;;;;;;7280354;32;20481;-56
2023/03/20 10:46:47;;;;;;;6.90;2.40;;;10.30;99.90;;;;;;7271947;32;20748;-55
2023/03/20 10:50:58;;;;;;;7.78;2.22;;;10.30;99.90;;;;;;7278622;32;20126;-57
2023/03/20 10:55:11;;;;;;;7.55;2.25;;;10.40;99.90;;;;;;7277466;32;20551;-57
2023/03/20 10:59:26;;;;;;;7.50;2.47;;;10.30;99.90;;;;;;7277856;32;20185;-57
2023/03/20 11:03:30;;;;;;;5.75;2.58;;;10.30;99.90;;;;;;7281734;32;20127;-57
2023/03/20 11:07:36;;;;;;;7.05;2.00;;;10.40;99.90;;;;;;7275218;32;20495;-58
2023/03/20 11:11:43;;;;;;;6.62;2.60;;;10.50;99.90;;;;;;7278054;32;20206;-57
2023/03/20 11:15:45;;;;;;;6.93;2.78;;;10.30;99.90;;;;;;7277440;32;20483;-57
2023/03/20 11:19:50;;;;;;;7.28;2.35;;;10.20;99.90;;;;;;7276885;32;20112;-57
2023/03/20 11:23:53;;;;;;;8.32;2.25;;;10.10;99.90;;;;;;7271630;32;20108;-58
2023/03/20 11:27:56;;;;;;;5.80;2.40;;;10.20;99.90;;;;;;7276826;32;20542;-57
2023/03/20 11:32:19;;;;;;;11.27;2.50;;;10.20;99.90;;;;;;7275158;32;20652;-57
2023/03/20 11:36:28;;;;;;;10.27;3.55;;;10.30;99.90;;;;;;7274653;32;20112;-57
2023/03/20 11:40:32;;;;;;;10.35;3.00;;;10.30;99.90;;;;;;7284203;32;20103;-58
2023/03/20 11:44:35;;;;;;;7.85;2.92;;;10.50;99.90;;;;;;7279749;32;20199;-57
2023/03/20 11:48:44;;;;;;;9.23;2.35;;;10.40;99.90;;;;;;7278502;32;20228;-56
2023/03/20 11:52:46;;;;;;;8.68;2.90;;;10.00;99.90;;;;;;7272014;32;20116;-57
2023/03/20 11:56:57;;;;;;;8.88;2.58;;;10.30;99.90;;;;;;7276580;32;20108;-57
2023/03/20 12:01:01;;;;;;;10.85;2.97;;;10.20;99.90;;;;;;7279709;32;20126;-57
2023/03/20 12:05:27;;;;;;;8.32;2.12;;;9.80;99.90;;;;;;7282348;32;20132;-57
2023/03/20 12:09:36;;;;;;;6.80;2.00;;;9.90;99.90;;;;;;7275480;32;20131;-57
2023/03/20 12:13:42;;;;;;;4.97;1.77;;;9.70;99.90;;;;;;7278544;32;20596;-57
2023/03/20 12:17:53;;;;;;;8.20;2.08;;;9.50;99.90;;;;;;7274433;32;20310;-59
2023/03/20 12:22:04;;;;;;;9.02;2.12;;;9.30;99.90;;;;;;7279499;32;20289;-59
2023/03/20 12:26:33;;;;;;;8.32;1.90;;;9.50;99.90;;;;;;7286362;32;20108;-59
2023/03/20 12:31:06;;;;;;;7.55;1.70;;;9.50;99.90;;;;;;7280001;32;20663;-56
2023/03/20 12:35:25;;;;;;;4.82;1.70;;;9.40;99.90;;;;;;7287337;32;20182;-56
2023/03/20 12:39:40;;;;;;;6.93;1.85;;;9.10;99.90;;;;;;7279487;32;20112;-56
2023/03/20 12:44:14;;;;;;;10.45;2.20;;;9.10;99.90;;;;;;7274220;32;20254;-56
2023/03/20 12:48:36;;;;;;;7.55;2.50;;;9.50;99.90;;;;;;7283947;32;20223;-55
2023/03/20 12:52:48;;;;;;;8.75;2.67;;;9.90;99.90;;;;;;7275744;32;20116;-56
2023/03/20 12:57:33;;;;;;;7.10;2.95;;;10.20;99.90;;;;;;7278726;32;20179;-57
2023/03/20 13:01:55;;;;;;;5.87;2.30;;;10.00;99.90;;;;;;7273875;32;20187;-56
2023/03/20 13:06:28;;;;;;;8.10;2.40;;;9.80;99.90;;;;;;7278964;32;20226;-56
2023/03/20 13:10:57;;;;;;;8.02;2.80;;;9.90;99.90;;;;;;7270449;32;20195;-56
2023/03/20 13:15:11;;;;;;;5.65;2.40;;;9.60;99.90;;;;;;7278090;32;20442;-56
2023/03/20 13:19:30;;;;;;;6.97;2.62;;;9.70;99.90;;;;;;7273889;32;20360;-57
2023/03/20 13:23:53;;;;;;;9.35;2.30;;;9.90;99.90;;;;;;7278791;32;20730;-56
2023/03/20 13:28:03;;;;;;;7.57;2.37;;;9.70;99.90;;;;;;7283392;32;20791;-56
2023/03/20 13:32:23;;;;;;;7.18;2.50;;;9.70;99.90;;;;;;7280655;32;20124;-56
2023/03/20 13:36:40;;;;;;;9.88;2.62;;;9.60;99.90;;;;;;7283313;32;20223;-56
2023/03/20 13:40:44;;;;;;;6.37;2.07;;;9.80;99.90;;;;;;7286057;32;20241;-57
2023/03/20 13:44:48;;;;;;;6.47;2.20;;;9.90;99.90;;;;;;7275608;32;20180;-56
2023/03/20 13:48:52;;;;;;;6.28;2.58;;;9.80;99.90;;;;;;7283305;32;20545;-56
2023/03/20 13:53:23;;;;;;;4.07;1.80;;;9.90;99.90;;;;;;7278220;32;20470;-56
2023/03/20 13:57:58;;;;;;;8.93;2.20;;;9.90;99.90;;;;;;7262188;32;20230;-57
2023/03/20 14:02:37;;;;;;;6.95;2.10;;;10.10;99.90;;;;;;7278360;32;20162;-56
2023/03/20 14:06:39;;;;;;;6.37;2.28;;;10.40;99.90;;;;;;7276641;32;20192;-60
2023/03/20 14:10:44;;;;;;;6.75;2.15;;;10.60;99.90;;;;;;7280083;32;20123;-55
2023/03/20 14:14:52;;;;;;;7.25;2.40;;;10.50;99.90;;;;;;7280453;32;20433;-55
2023/03/20 14:19:16;;;;;;;9.73;2.45;;;10.40;99.90;;;;;;7277270;32;20138;-54
2023/03/20 14:23:36;;;;;;;8.70;2.42;;;10.20;99.90;;;;;;7277413;32;20223;-56
2023/03/20 14:27:55;;;;;;;9.00;2.33;;;10.00;99.90;;;;;;7281101;32;20178;-55
2023/03/20 14:32:30;;;;;;;6.03;2.72;;;10.00;99.90;;;;;;7290076;32;20196;-56
2023/03/20 14:36:53;;;;;;;7.65;2.30;;;10.00;99.90;;;;;;7281839;32;20261;-57
2023/03/20 14:41:13;;;;;;;9.00;2.72;;;10.20;99.90;;;;;;7277088;32;20108;-56
2023/03/20 14:45:24;;;;;;;9.65;2.42;;;10.20;99.90;;;;;;7282119;32;20215;-56
2023/03/20 14:49:41;;;;;;;11.43;2.90;;;10.20;99.90;;;;;;7278407;32;20241;-56
2023/03/20 14:53:43;;;;;;;10.85;2.20;;;10.30;99.90;;;;;;7278901;32;20255;-56
2023/03/20 14:57:45;;;;;;;10.23;2.60;;;10.50;99.90;;;;;;7280284;32;20175;-56
2023/03/20 15:01:59;;;;;;;9.23;2.78;;;10.60;99.90;;;;;;7277422;32;20227;-56
2023/03/20 15:06:04;;;;;;;10.82;2.42;;;10.80;99.90;;;;;;7275496;32;20188;-56
2023/03/20 15:10:06;;;;;;;11.15;3.53;;;10.70;99.90;;;;;;7285837;32;20640;-57
2023/03/20 15:14:09;;;;;;;10.35;3.10;;;10.60;99.90;;;;;;7287381;32;20571;-56
2023/03/20 15:18:13;;;;;;;11.05;2.60;;;10.30;99.90;;;;;;7278989;32;20449;-57
2023/03/20 15:22:19;;;;;;;11.32;3.70;;;10.30;99.90;;;;;;7286826;32;20139;-57
2023/03/20 15:26:24;;;;;;;11.00;2.60;;;10.30;99.90;;;;;;7284802;32;20166;-58
2023/03/20 15:30:26;;;;;;;10.98;3.00;;;10.40;99.90;;;;;;7278384;32;20183;-57
2023/03/20 15:34:31;;;;;;;6.45;2.37;;;10.30;99.90;;;;;;7278760;32;20275;-56
2023/03/20 15:38:35;;;;;;;8.32;3.20;;;10.30;99.90;;;;;;7285299;32;20158;-57
2023/03/20 15:42:36;;;;;;;10.93;2.50;;;10.30;99.90;;;;;;7279562;32;20513;-57
2023/03/20 15:46:38;;;;;;;9.15;2.60;;;10.30;99.90;;;;;;7283117;32;20198;-55
2023/03/20 15:50:44;;;;;;;7.80;2.47;;;10.40;99.90;;;;;;7280888;32;20158;-55
2023/03/20 15:54:47;;;;;;;7.95;2.35;;;10.40;99.90;;;;;;7281938;32;20112;-58
2023/03/20 15:58:54;;;;;;;10.20;2.20;;;10.40;99.90;;;;;;7284727;32;20187;-58
2023/03/20 16:02:57;;;;;;;8.50;2.20;;;10.50;99.90;;;;;;7280510;32;20168;-58
2023/03/20 16:07:00;;;;;;;10.55;2.80;;;10.70;99.90;;;;;;7286728;32;20203;-58
2023/03/20 16:11:10;;;;;;;7.25;2.20;;;10.50;99.90;;;;;;7288377;32;20570;-58
2023/03/20 16:15:17;;;;;;;7.62;1.80;;;10.50;99.90;;;;;;7283309;32;20171;-58
2023/03/20 16:19:19;;;;;;;5.33;2.20;;;10.60;99.90;;;;;;7279934;32;20219;-56
2023/03/20 16:23:40;;;;;;;8.25;2.50;;;10.40;99.90;;;;;;7286571;32;20246;-56
2023/03/20 16:27:45;;;;;;;10.02;2.40;;;10.20;99.90;;;;;;7287626;32;20126;-56
2023/03/20 16:31:53;;;;;;;12.55;3.08;;;10.00;99.90;;;;;;7288269;32;20194;-56
2023/03/20 16:35:55;;;;;;;9.68;2.20;;;9.90;99.90;;;;;;7282223;32;20741;-54
2023/03/20 16:40:18;;;;;;;10.43;2.80;;;9.80;99.90;;;;;;7283482;32;20496;-56
2023/03/20 16:44:26;;;;;;;7.78;2.12;;;9.70;99.90;;;;;;7277241;32;20186;-56
2023/03/20 16:48:36;;;;;;;9.70;3.03;;;9.60;99.90;;;;;;7285087;32;20635;-56
2023/03/20 16:52:43;;;;;;;12.00;2.62;;;9.50;99.90;;;;;;7285292;32;20491;-56
2023/03/20 16:56:51;;;;;;;10.38;2.53;;;9.50;99.90;;;;;;7285279;32;20139;-56
2023/03/20 17:00:58;;;;;;;10.82;2.47;;;9.40;99.90;;;;;;7282036;32;20116;-56
2023/03/20 17:05:11;;;;;;;9.80;2.33;;;9.40;99.90;;;;;;7275669;32;20208;-56
2023/03/20 17:09:12;;;;;;;11.52;3.35;;;9.50;99.90;;;;;;7276979;32;20104;-56
2023/03/20 17:13:14;;;;;;;9.15;2.53;;;9.50;99.90;;;;;;7276230;32;20136;-56
2023/03/20 17:17:21;;;;;;;8.70;2.40;;;9.50;99.90;;;;;;7275116;32;20112;-56
2023/03/20 17:21:23;;;;;;;6.43;2.45;;;9.50;99.90;;;;;;7284629;32;20111;-56
2023/03/20 17:25:25;;;;;;;7.80;2.75;;;9.50;99.90;;;;;;7282976;32;20157;-56
2023/03/20 17:29:26;;;;;;;10.23;2.40;;;9.50;99.90;;;;;;7279661;32;20202;-56
2023/03/20 17:33:28;;;;;;;9.27;2.72;;;9.60;99.90;;;;;;7277144;32;20226;-56
2023/03/20 17:37:30;;;;;;;6.28;2.55;;;9.60;99.90;;;;;;7281603;32;20249;-56
2023/03/20 17:41:32;;;;;;;9.63;2.67;;;9.50;99.90;;;;;;7285939;32;20135;-56
2023/03/20 17:45:33;;;;;;;11.57;2.72;;;9.60;99.90;;;;;;7284317;32;20126;-57
2023/03/20 17:49:35;;;;;;;13.10;2.45;;;9.60;99.90;;;;;;7283489;32;20134;-55
2023/03/20 17:53:37;;;;;;;14.52;2.37;;;9.60;99.90;;;;;;7282691;32;20213;-56
2023/03/20 17:57:39;;;;;;;9.25;2.60;;;9.50;99.90;;;;;;7283238;32;20112;-55
2023/03/20 18:01:41;;;;;;;12.85;2.50;;;9.60;99.90;;;;;;7283968;32;20214;-57
2023/03/20 18:05:46;;;;;;;11.30;2.58;;;9.70;99.90;;;;;;7276696;32;20612;-56
2023/03/20 18:09:48;;;;;;;9.63;2.40;;;9.60;99.90;;;;;;7280595;32;20179;-55
2023/03/20 18:13:49;;;;;;;8.90;2.30;;;9.70;99.90;;;;;;7281348;32;20366;-55
2023/03/20 18:17:51;;;;;;;8.63;2.20;;;9.70;99.90;;;;;;7283647;32;20113;-56
2023/03/20 18:21:54;;;;;;;6.22;1.80;;;9.70;99.90;;;;;;7280681;32;20501;-55
2023/03/20 18:25:56;;;;;;;7.60;2.05;;;9.60;99.90;;;;;;7283591;32;20104;-55
2023/03/20 18:29:58;;;;;;;6.10;2.15;;;9.70;99.90;;;;;;7278720;32;20170;-55
2023/03/20 18:34:00;;;;;;;11.38;2.80;;;9.70;99.90;;;;;;7276925;32;20590;-55
2023/03/20 18:38:02;;;;;;;6.90;2.40;;;9.70;99.90;;;;;;7282676;32;20142;-55
2023/03/20 18:42:04;;;;;;;8.75;2.30;;;9.70;99.90;;;;;;7275152;32;20135;-55
2023/03/20 18:46:12;;;;;;;9.43;2.20;;;9.70;99.90;;;;;;7281624;32;20459;-54
2023/03/20 18:50:29;;;;;;;11.75;2.92;;;9.70;99.90;;;;;;7277209;32;20135;-55
2023/03/20 18:54:31;;;;;;;11.57;2.87;;;9.80;99.90;;;;;;7274197;32;20133;-55
2023/03/20 18:58:32;;;;;;;5.87;2.30;;;9.80;99.90;;;;;;7281782;32;20105;-55
2023/03/20 19:02:34;;;;;;;7.37;2.47;;;9.70;99.90;;;;;;7280435;32;20228;-55
2023/03/20 19:06:36;;;;;;;7.25;2.22;;;9.70;99.90;;;;;;7276398;32;20699;-55
2023/03/20 19:10:42;;;;;;;10.00;2.35;;;9.70;99.90;;;;;;7280893;32;20421;-55
2023/03/20 19:14:44;;;;;;;12.57;2.67;;;9.80;99.90;;;;;;7282354;32;20599;-56
2023/03/20 19:18:48;;;;;;;12.95;2.67;;;9.80;99.90;;;;;;7276708;32;20112;-55
2023/03/20 19:22:50;;;;;;;6.80;2.22;;;9.80;99.90;;;;;;7278173;32;20128;-55
2023/03/20 19:26:55;;;;;;;9.40;2.58;;;9.70;99.90;;;;;;7284320;32;20116;-55
2023/03/20 19:30:57;;;;;;;4.85;2.28;;;9.60;99.90;;;;;;7281012;32;20309;-55
2023/03/20 19:34:59;;;;;;;11.98;2.90;;;9.60;99.90;;;;;;7289750;32;20123;-54
2023/03/20 19:39:21;;;;;;;10.20;3.28;;;9.50;99.90;;;;;;7280143;32;20128;-55
2023/03/20 19:43:23;;;;;;;8.27;1.90;;;9.40;99.90;;;;;;7278487;32;20199;-55
2023/03/20 19:47:25;;;;;;;8.77;2.35;;;9.30;99.90;;;;;;7283251;32;20168;-56
2023/03/20 19:51:26;;;;;;;5.22;2.12;;;9.40;99.90;;;;;;7280393;32;20109;-55
2023/03/20 19:55:29;;;;;;;9.90;2.65;;;9.50;99.90;;;;;;7272258;32;20218;-56
2023/03/20 19:59:30;;;;;;;15.88;2.78;;;9.40;99.90;;;;;;7282191;32;20112;-57
2023/03/20 20:03:33;;;;;;;9.90;3.05;;;9.30;99.90;;;;;;7278526;32;20488;-56
2023/03/20 20:07:35;;;;;;;9.70;2.60;;;9.30;99.90;;;;;;7278193;32;20122;-56
2023/03/20 20:11:57;;;;;;;7.97;2.85;;;9.30;99.90;;;;;;7279991;32;20146;-55
2023/03/20 20:15:59;;;;;;;14.60;2.92;;;9.50;99.90;;;;;;7280161;32;20120;-56
2023/03/20 20:20:01;;;;;;;8.15;2.40;;;9.40;99.90;;;;;;7276171;32;20227;-56
2023/03/20 20:24:03;;;;;;;8.07;2.80;;;9.50;99.90;;;;;;7276871;32;20132;-56
2023/03/20 20:28:06;;;;;;;6.40;2.40;;;9.40;99.90;;;;;;7280258;32;20131;-55
2023/03/20 20:32:07;;;;;;;8.45;3.03;;;9.40;99.90;;;;;;7278171;32;20199;-56
2023/03/20 20:36:11;;;;;;;7.25;3.00;;;9.40;99.90;;;;;;7284391;32;20157;-56
2023/03/20 20:40:32;;;;;;;8.68;2.80;;;9.30;99.90;;;;;;7276253;32;20131;-55
2023/03/20 20:44:34;;;;;;;10.10;2.90;;;9.40;99.90;;;;;;7282093;32;20604;-56
2023/03/20 20:48:37;;;;;;;7.60;2.72;;;9.50;99.90;;;;;;7275214;32;20270;-56
2023/03/20 20:52:40;;;;;;;7.97;2.90;;;9.50;99.90;;;;;;7285922;32;20167;-56
2023/03/20 20:56:42;;;;;;;9.20;3.00;;;9.50;99.90;;;;;;7276149;32;20203;-56
2023/03/20 21:00:44;;;;;;;11.52;3.20;;;9.50;99.90;;;;;;7285731;32;20166;-56
2023/03/20 21:04:55;;;;;;;10.85;3.37;;;9.50;99.90;;;;;;7283041;32;20202;-57
2023/03/20 21:08:56;;;;;;;9.48;3.10;;;9.50;99.90;;;;;;7280880;32;20144;-55
2023/03/20 21:12:58;;;;;;;6.50;2.25;;;9.50;99.90;;;;;;7284816;32;20108;-55
2023/03/20 21:17:00;;;;;;;9.48;2.90;;;9.50;99.90;;;;;;7280241;32;20242;-55
2023/03/20 21:21:11;;;;;;;14.93;2.53;;;9.50;99.90;;;;;;7277414;32;20141;-55
2023/03/20 21:25:15;;;;;;;10.48;3.25;;;9.50;99.90;;;;;;7276250;32;20810;-55
2023/03/20 21:29:20;;;;;;;9.90;2.60;;;9.60;99.90;;;;;;7268212;32;20151;-55